sensor_id;sensor_type;location;lat;lon;timestamp;P1;durP1;ratioP1;P2;durP2;ratioP2
16075;SDS011;8142;48.242;11.644;2023-07-08T00:00:23;9.47;;;6.30;;
16075;SDS011;8142;48.242;11.644;2023-07-08T00:02:50;9.47;;;6.53;;
16075;SDS011;8142;48.242;11.644;2023-07-08T00:05:17;8.43;;;5.93;;
16075;SDS011;8142;48.242;11.644;2023-07-08T00:07:44;8.77;;;6.23;;
16075;SDS011;8142;48.242;11.644;2023-07-08T00:12:40;8.37;;;6.10;;
16075;SDS011;8142;48.242;11.644;2023-07-08T00:15:06;10.43;;;6.50;;
16075;SDS011;8142;48.242;11.644;2023-07-08T00:17:33;11.03;;;6.63;;
16075;SDS011;8142;48.242;11.644;2023-07-08T00:19:58;9.20;;;6.57;;
16075;SDS011;8142;48.242;11.644;2023-07-08T00:22:24;9.00;;;6.40;;
16075;SDS011;8142;48.242;11.644;2023-07-08T00:24:50;10.70;;;6.57;;
16075;SDS011;8142;48.242;11.644;2023-07-08T00:27:16;9.47;;;6.23;;
16075;SDS011;8142;48.242;11.644;2023-07-08T00:29:42;9.30;;;6.40;;
16075;SDS011;8142;48.242;11.644;2023-07-08T00:32:09;8.47;;;6.37;;
16075;SDS011;8142;48.242;11.644;2023-07-08T00:34:38;9.63;;;6.23;;
16075;SDS011;8142;48.242;11.644;2023-07-08T00:37:04;10.90;;;6.53;;
16075;SDS011;8142;48.242;11.644;2023-07-08T00:39:33;8.47;;;6.03;;
16075;SDS011;8142;48.242;11.644;2023-07-08T00:42:00;8.20;;;5.70;;
16075;SDS011;8142;48.242;11.644;2023-07-08T00:44:30;9.13;;;6.03;;
16075;SDS011;8142;48.242;11.644;2023-07-08T00:49:28;10.33;;;6.17;;
16075;SDS011;8142;48.242;11.644;2023-07-08T00:51:55;11.60;;;6.10;;
16075;SDS011;8142;48.242;11.644;2023-07-08T00:54:21;9.83;;;6.37;;
16075;SDS011;8142;48.242;11.644;2023-07-08T00:56:49;9.20;;;6.13;;
16075;SDS011;8142;48.242;11.644;2023-07-08T00:59:25;10.53;;;6.63;;
16075;SDS011;8142;48.242;11.644;2023-07-08T01:01:55;9.03;;;6.20;;
16075;SDS011;8142;48.242;11.644;2023-07-08T01:04:28;10.57;;;6.10;;
16075;SDS011;8142;48.242;11.644;2023-07-08T01:06:58;8.10;;;5.87;;
16075;SDS011;8142;48.242;11.644;2023-07-08T01:09:29;10.63;;;5.97;;
16075;SDS011;8142;48.242;11.644;2023-07-08T01:11:58;9.00;;;5.83;;
16075;SDS011;8142;48.242;11.644;2023-07-08T01:14:26;13.73;;;7.47;;
16075;SDS011;8142;48.242;11.644;2023-07-08T01:16:56;10.23;;;6.33;;
16075;SDS011;8142;48.242;11.644;2023-07-08T01:19:23;11.67;;;6.23;;
16075;SDS011;8142;48.242;11.644;2023-07-08T01:21:59;8.63;;;5.50;;
16075;SDS011;8142;48.242;11.644;2023-07-08T01:24:29;14.90;;;6.00;;
16075;SDS011;8142;48.242;11.644;2023-07-08T01:26:57;10.97;;;5.70;;
16075;SDS011;8142;48.242;11.644;2023-07-08T01:29:25;8.57;;;6.33;;
16075;SDS011;8142;48.242;11.644;2023-07-08T01:31:50;8.17;;;5.97;;
16075;SDS011;8142;48.242;11.644;2023-07-08T01:34:17;10.27;;;5.80;;
16075;SDS011;8142;48.242;11.644;2023-07-08T01:36:47;7.10;;;5.60;;
16075;SDS011;8142;48.242;11.644;2023-07-08T01:39:20;7.80;;;6.10;;
16075;SDS011;8142;48.242;11.644;2023-07-08T01:41:47;7.63;;;6.00;;
16075;SDS011;8142;48.242;11.644;2023-07-08T01:46:45;8.17;;;6.30;;
16075;SDS011;8142;48.242;11.644;2023-07-08T01:49:11;8.47;;;6.07;;
16075;SDS011;8142;48.242;11.644;2023-07-08T01:51:37;8.27;;;6.00;;
16075;SDS011;8142;48.242;11.644;2023-07-08T01:54:03;8.57;;;6.47;;
16075;SDS011;8142;48.242;11.644;2023-07-08T01:56:29;8.33;;;6.47;;
16075;SDS011;8142;48.242;11.644;2023-07-08T01:58:54;9.50;;;6.57;;
16075;SDS011;8142;48.242;11.644;2023-07-08T02:01:20;8.83;;;6.40;;
16075;SDS011;8142;48.242;11.644;2023-07-08T02:03:46;8.43;;;6.87;;
16075;SDS011;8142;48.242;11.644;2023-07-08T02:06:12;8.37;;;6.80;;
16075;SDS011;8142;48.242;11.644;2023-07-08T02:08:38;10.47;;;7.00;;
16075;SDS011;8142;48.242;11.644;2023-07-08T02:11:04;9.47;;;6.67;;
16075;SDS011;8142;48.242;11.644;2023-07-08T02:13:30;9.37;;;7.07;;
16075;SDS011;8142;48.242;11.644;2023-07-08T02:15:56;9.87;;;7.47;;
16075;SDS011;8142;48.242;11.644;2023-07-08T02:18:21;10.80;;;7.40;;
16075;SDS011;8142;48.242;11.644;2023-07-08T02:20:50;11.53;;;6.90;;
16075;SDS011;8142;48.242;11.644;2023-07-08T02:23:16;10.07;;;6.77;;
16075;SDS011;8142;48.242;11.644;2023-07-08T02:25:43;13.93;;;6.33;;
16075;SDS011;8142;48.242;11.644;2023-07-08T02:28:18;9.97;;;6.73;;
16075;SDS011;8142;48.242;11.644;2023-07-08T02:30:44;8.03;;;5.97;;
16075;SDS011;8142;48.242;11.644;2023-07-08T02:33:12;9.03;;;6.27;;
16075;SDS011;8142;48.242;11.644;2023-07-08T02:35:40;8.63;;;5.90;;
16075;SDS011;8142;48.242;11.644;2023-07-08T02:38:05;10.10;;;5.80;;
16075;SDS011;8142;48.242;11.644;2023-07-08T02:40:31;10.33;;;6.20;;
16075;SDS011;8142;48.242;11.644;2023-07-08T02:42:57;10.10;;;5.93;;
16075;SDS011;8142;48.242;11.644;2023-07-08T02:45:23;8.37;;;5.50;;
16075;SDS011;8142;48.242;11.644;2023-07-08T02:47:49;7.67;;;6.00;;
16075;SDS011;8142;48.242;11.644;2023-07-08T02:50:14;8.07;;;5.90;;
16075;SDS011;8142;48.242;11.644;2023-07-08T02:52:42;9.30;;;6.27;;
16075;SDS011;8142;48.242;11.644;2023-07-08T02:55:08;8.70;;;5.70;;
16075;SDS011;8142;48.242;11.644;2023-07-08T02:57:34;7.17;;;5.20;;
16075;SDS011;8142;48.242;11.644;2023-07-08T03:00:00;10.33;;;5.60;;
16075;SDS011;8142;48.242;11.644;2023-07-08T03:02:26;10.97;;;5.50;;
16075;SDS011;8142;48.242;11.644;2023-07-08T03:04:52;8.47;;;5.70;;
16075;SDS011;8142;48.242;11.644;2023-07-08T03:07:19;7.77;;;5.60;;
16075;SDS011;8142;48.242;11.644;2023-07-08T03:09:45;10.60;;;5.77;;
16075;SDS011;8142;48.242;11.644;2023-07-08T03:12:11;6.70;;;5.33;;
16075;SDS011;8142;48.242;11.644;2023-07-08T03:14:37;7.67;;;5.33;;
16075;SDS011;8142;48.242;11.644;2023-07-08T03:17:03;8.77;;;5.60;;
16075;SDS011;8142;48.242;11.644;2023-07-08T03:19:30;8.03;;;5.27;;
16075;SDS011;8142;48.242;11.644;2023-07-08T03:21:56;9.20;;;5.70;;
16075;SDS011;8142;48.242;11.644;2023-07-08T03:24:22;7.67;;;5.37;;
16075;SDS011;8142;48.242;11.644;2023-07-08T03:26:47;6.13;;;5.13;;
16075;SDS011;8142;48.242;11.644;2023-07-08T03:29:17;6.90;;;5.30;;
16075;SDS011;8142;48.242;11.644;2023-07-08T03:31:44;7.67;;;5.60;;
16075;SDS011;8142;48.242;11.644;2023-07-08T03:34:13;10.00;;;5.27;;
16075;SDS011;8142;48.242;11.644;2023-07-08T03:36:45;9.30;;;6.60;;
16075;SDS011;8142;48.242;11.644;2023-07-08T03:39:20;10.20;;;6.23;;
16075;SDS011;8142;48.242;11.644;2023-07-08T03:41:47;8.80;;;5.53;;
16075;SDS011;8142;48.242;11.644;2023-07-08T03:44:14;7.47;;;5.30;;
16075;SDS011;8142;48.242;11.644;2023-07-08T03:46:43;8.03;;;5.60;;
16075;SDS011;8142;48.242;11.644;2023-07-08T03:49:10;8.50;;;5.50;;
16075;SDS011;8142;48.242;11.644;2023-07-08T03:51:37;7.47;;;5.33;;
16075;SDS011;8142;48.242;11.644;2023-07-08T03:54:05;7.10;;;5.50;;
16075;SDS011;8142;48.242;11.644;2023-07-08T03:56:32;9.60;;;5.23;;
16075;SDS011;8142;48.242;11.644;2023-07-08T03:58:58;8.53;;;5.23;;
16075;SDS011;8142;48.242;11.644;2023-07-08T04:01:24;8.17;;;5.40;;
16075;SDS011;8142;48.242;11.644;2023-07-08T04:03:54;6.70;;;5.20;;
16075;SDS011;8142;48.242;11.644;2023-07-08T04:06:22;7.47;;;5.20;;
16075;SDS011;8142;48.242;11.644;2023-07-08T04:08:49;8.30;;;5.50;;
16075;SDS011;8142;48.242;11.644;2023-07-08T04:11:19;8.70;;;5.90;;
16075;SDS011;8142;48.242;11.644;2023-07-08T04:13:47;7.40;;;5.30;;
16075;SDS011;8142;48.242;11.644;2023-07-08T04:16:58;8.43;;;5.33;;
16075;SDS011;8142;48.242;11.644;2023-07-08T04:19:11;7.53;;;5.23;;
16075;SDS011;8142;48.242;11.644;2023-07-08T04:21:41;7.13;;;4.83;;
16075;SDS011;8142;48.242;11.644;2023-07-08T04:24:12;7.27;;;5.10;;
16075;SDS011;8142;48.242;11.644;2023-07-08T04:26:39;8.43;;;5.47;;
16075;SDS011;8142;48.242;11.644;2023-07-08T04:29:08;7.70;;;5.57;;
16075;SDS011;8142;48.242;11.644;2023-07-08T04:31:36;11.43;;;5.97;;
16075;SDS011;8142;48.242;11.644;2023-07-08T04:34:02;7.20;;;5.70;;
16075;SDS011;8142;48.242;11.644;2023-07-08T04:36:28;7.90;;;5.47;;
16075;SDS011;8142;48.242;11.644;2023-07-08T04:38:54;8.13;;;5.93;;
16075;SDS011;8142;48.242;11.644;2023-07-08T04:41:23;8.40;;;5.90;;
16075;SDS011;8142;48.242;11.644;2023-07-08T04:43:51;8.23;;;5.63;;
16075;SDS011;8142;48.242;11.644;2023-07-08T04:49:08;11.47;;;5.60;;
16075;SDS011;8142;48.242;11.644;2023-07-08T04:51:39;7.43;;;5.37;;
16075;SDS011;8142;48.242;11.644;2023-07-08T04:54:06;13.00;;;5.73;;
16075;SDS011;8142;48.242;11.644;2023-07-08T04:56:34;10.70;;;5.40;;
16075;SDS011;8142;48.242;11.644;2023-07-08T04:59:01;6.87;;;5.37;;
16075;SDS011;8142;48.242;11.644;2023-07-08T05:01:27;7.77;;;5.17;;
16075;SDS011;8142;48.242;11.644;2023-07-08T05:03:53;7.70;;;5.13;;
16075;SDS011;8142;48.242;11.644;2023-07-08T05:06:19;7.80;;;5.20;;
16075;SDS011;8142;48.242;11.644;2023-07-08T05:08:44;7.87;;;5.40;;
16075;SDS011;8142;48.242;11.644;2023-07-08T05:11:10;8.17;;;5.33;;
16075;SDS011;8142;48.242;11.644;2023-07-08T05:13:36;9.00;;;5.60;;
16075;SDS011;8142;48.242;11.644;2023-07-08T05:16:02;5.57;;;4.97;;
16075;SDS011;8142;48.242;11.644;2023-07-08T05:18:28;7.37;;;5.10;;
16075;SDS011;8142;48.242;11.644;2023-07-08T05:20:55;6.97;;;5.67;;
16075;SDS011;8142;48.242;11.644;2023-07-08T05:23:21;7.73;;;5.33;;
16075;SDS011;8142;48.242;11.644;2023-07-08T05:25:47;8.47;;;5.77;;
16075;SDS011;8142;48.242;11.644;2023-07-08T05:28:13;7.00;;;5.57;;
16075;SDS011;8142;48.242;11.644;2023-07-08T05:30:39;7.77;;;5.83;;
16075;SDS011;8142;48.242;11.644;2023-07-08T05:33:05;6.73;;;5.43;;
16075;SDS011;8142;48.242;11.644;2023-07-08T05:35:32;8.67;;;5.33;;
16075;SDS011;8142;48.242;11.644;2023-07-08T05:37:58;8.60;;;5.27;;
16075;SDS011;8142;48.242;11.644;2023-07-08T05:40:23;7.27;;;5.00;;
16075;SDS011;8142;48.242;11.644;2023-07-08T05:42:50;7.87;;;5.17;;
16075;SDS011;8142;48.242;11.644;2023-07-08T05:45:15;8.37;;;5.20;;
16075;SDS011;8142;48.242;11.644;2023-07-08T05:47:41;6.57;;;5.03;;
16075;SDS011;8142;48.242;11.644;2023-07-08T05:50:07;7.60;;;5.57;;
16075;SDS011;8142;48.242;11.644;2023-07-08T05:52:33;7.27;;;5.30;;
16075;SDS011;8142;48.242;11.644;2023-07-08T05:54:59;7.83;;;5.50;;
16075;SDS011;8142;48.242;11.644;2023-07-08T05:57:25;7.73;;;5.60;;
16075;SDS011;8142;48.242;11.644;2023-07-08T05:59:51;8.17;;;5.10;;
16075;SDS011;8142;48.242;11.644;2023-07-08T06:02:18;7.47;;;4.90;;
16075;SDS011;8142;48.242;11.644;2023-07-08T06:04:46;7.13;;;5.10;;
16075;SDS011;8142;48.242;11.644;2023-07-08T06:07:12;7.30;;;5.40;;
16075;SDS011;8142;48.242;11.644;2023-07-08T06:09:38;8.03;;;5.40;;
16075;SDS011;8142;48.242;11.644;2023-07-08T06:12:04;9.13;;;5.13;;
16075;SDS011;8142;48.242;11.644;2023-07-08T06:14:30;7.43;;;5.30;;
16075;SDS011;8142;48.242;11.644;2023-07-08T06:16:57;6.80;;;4.47;;
16075;SDS011;8142;48.242;11.644;2023-07-08T06:19:23;7.03;;;4.80;;
16075;SDS011;8142;48.242;11.644;2023-07-08T06:21:49;9.00;;;5.13;;
16075;SDS011;8142;48.242;11.644;2023-07-08T06:24:15;7.07;;;4.97;;
16075;SDS011;8142;48.242;11.644;2023-07-08T06:26:42;6.33;;;5.00;;
16075;SDS011;8142;48.242;11.644;2023-07-08T06:29:07;8.37;;;4.83;;
16075;SDS011;8142;48.242;11.644;2023-07-08T06:31:33;7.77;;;5.00;;
16075;SDS011;8142;48.242;11.644;2023-07-08T06:34:00;6.53;;;5.20;;
16075;SDS011;8142;48.242;11.644;2023-07-08T06:36:27;7.40;;;5.70;;
16075;SDS011;8142;48.242;11.644;2023-07-08T06:38:53;7.73;;;5.27;;
16075;SDS011;8142;48.242;11.644;2023-07-08T06:41:19;8.40;;;5.27;;
16075;SDS011;8142;48.242;11.644;2023-07-08T06:43:44;8.80;;;5.53;;
16075;SDS011;8142;48.242;11.644;2023-07-08T06:46:11;7.47;;;5.30;;
16075;SDS011;8142;48.242;11.644;2023-07-08T06:48:37;7.67;;;6.00;;
16075;SDS011;8142;48.242;11.644;2023-07-08T06:51:03;8.47;;;5.70;;
16075;SDS011;8142;48.242;11.644;2023-07-08T06:53:29;8.20;;;5.53;;
16075;SDS011;8142;48.242;11.644;2023-07-08T06:55:55;9.60;;;6.07;;
16075;SDS011;8142;48.242;11.644;2023-07-08T06:58:20;7.53;;;5.97;;
16075;SDS011;8142;48.242;11.644;2023-07-08T07:00:46;8.80;;;5.70;;
16075;SDS011;8142;48.242;11.644;2023-07-08T07:03:12;7.73;;;5.63;;
16075;SDS011;8142;48.242;11.644;2023-07-08T07:05:39;7.90;;;5.70;;
16075;SDS011;8142;48.242;11.644;2023-07-08T07:08:05;9.23;;;5.97;;
16075;SDS011;8142;48.242;11.644;2023-07-08T07:10:33;7.50;;;5.60;;
16075;SDS011;8142;48.242;11.644;2023-07-08T07:12:59;8.07;;;6.03;;
16075;SDS011;8142;48.242;11.644;2023-07-08T07:15:25;8.63;;;5.63;;
16075;SDS011;8142;48.242;11.644;2023-07-08T07:17:51;10.40;;;5.60;;
16075;SDS011;8142;48.242;11.644;2023-07-08T07:20:17;7.47;;;5.97;;
16075;SDS011;8142;48.242;11.644;2023-07-08T07:22:43;7.90;;;5.50;;
16075;SDS011;8142;48.242;11.644;2023-07-08T07:25:09;9.20;;;6.40;;
16075;SDS011;8142;48.242;11.644;2023-07-08T07:27:35;9.07;;;6.20;;
16075;SDS011;8142;48.242;11.644;2023-07-08T07:30:01;8.83;;;5.50;;
16075;SDS011;8142;48.242;11.644;2023-07-08T07:32:28;7.87;;;5.80;;
16075;SDS011;8142;48.242;11.644;2023-07-08T07:34:55;8.20;;;5.90;;
16075;SDS011;8142;48.242;11.644;2023-07-08T07:37:22;8.27;;;5.80;;
16075;SDS011;8142;48.242;11.644;2023-07-08T07:39:48;9.00;;;6.20;;
16075;SDS011;8142;48.242;11.644;2023-07-08T07:42:15;8.80;;;5.87;;
16075;SDS011;8142;48.242;11.644;2023-07-08T07:44:41;11.93;;;6.30;;
16075;SDS011;8142;48.242;11.644;2023-07-08T07:47:08;9.60;;;6.30;;
16075;SDS011;8142;48.242;11.644;2023-07-08T07:49:35;8.83;;;6.37;;
16075;SDS011;8142;48.242;11.644;2023-07-08T07:52:02;9.00;;;6.07;;
16075;SDS011;8142;48.242;11.644;2023-07-08T07:54:28;8.93;;;6.23;;
16075;SDS011;8142;48.242;11.644;2023-07-08T07:56:54;8.03;;;5.87;;
16075;SDS011;8142;48.242;11.644;2023-07-08T07:59:20;10.80;;;6.10;;
16075;SDS011;8142;48.242;11.644;2023-07-08T08:01:47;8.83;;;6.07;;
16075;SDS011;8142;48.242;11.644;2023-07-08T08:04:12;10.57;;;6.53;;
16075;SDS011;8142;48.242;11.644;2023-07-08T08:06:39;10.67;;;6.30;;
16075;SDS011;8142;48.242;11.644;2023-07-08T08:09:05;8.80;;;6.50;;
16075;SDS011;8142;48.242;11.644;2023-07-08T08:11:31;9.07;;;6.70;;
16075;SDS011;8142;48.242;11.644;2023-07-08T08:13:58;10.13;;;6.50;;
16075;SDS011;8142;48.242;11.644;2023-07-08T08:16:25;9.17;;;6.47;;
16075;SDS011;8142;48.242;11.644;2023-07-08T08:18:51;9.47;;;6.60;;
16075;SDS011;8142;48.242;11.644;2023-07-08T08:21:17;8.93;;;5.70;;
16075;SDS011;8142;48.242;11.644;2023-07-08T08:23:43;8.40;;;6.13;;
16075;SDS011;8142;48.242;11.644;2023-07-08T08:26:09;10.07;;;6.00;;
16075;SDS011;8142;48.242;11.644;2023-07-08T08:28:35;9.47;;;6.20;;
16075;SDS011;8142;48.242;11.644;2023-07-08T08:31:01;8.37;;;6.43;;
16075;SDS011;8142;48.242;11.644;2023-07-08T08:33:27;9.47;;;6.23;;
16075;SDS011;8142;48.242;11.644;2023-07-08T08:35:53;8.60;;;6.07;;
16075;SDS011;8142;48.242;11.644;2023-07-08T08:38:18;21.23;;;7.20;;
16075;SDS011;8142;48.242;11.644;2023-07-08T08:40:44;13.07;;;6.93;;
16075;SDS011;8142;48.242;11.644;2023-07-08T08:43:15;11.70;;;6.47;;
16075;SDS011;8142;48.242;11.644;2023-07-08T08:45:52;9.83;;;6.33;;
16075;SDS011;8142;48.242;11.644;2023-07-08T08:48:23;8.53;;;6.30;;
16075;SDS011;8142;48.242;11.644;2023-07-08T08:50:55;15.13;;;6.57;;
16075;SDS011;8142;48.242;11.644;2023-07-08T08:53:25;9.57;;;6.03;;
16075;SDS011;8142;48.242;11.644;2023-07-08T08:56:13;9.77;;;6.10;;
16075;SDS011;8142;48.242;11.644;2023-07-08T08:58:44;9.43;;;5.90;;
16075;SDS011;8142;48.242;11.644;2023-07-08T09:01:29;8.73;;;5.80;;
16075;SDS011;8142;48.242;11.644;2023-07-08T09:06:34;9.07;;;5.90;;
16075;SDS011;8142;48.242;11.644;2023-07-08T09:09:05;8.40;;;6.10;;
16075;SDS011;8142;48.242;11.644;2023-07-08T09:11:44;8.43;;;6.10;;
16075;SDS011;8142;48.242;11.644;2023-07-08T09:14:14;8.13;;;6.03;;
16075;SDS011;8142;48.242;11.644;2023-07-08T09:21:57;8.93;;;6.60;;
16075;SDS011;8142;48.242;11.644;2023-07-08T09:24:40;11.47;;;6.63;;
16075;SDS011;8142;48.242;11.644;2023-07-08T09:27:13;10.83;;;6.13;;
16075;SDS011;8142;48.242;11.644;2023-07-08T09:29:39;8.17;;;6.10;;
16075;SDS011;8142;48.242;11.644;2023-07-08T09:32:15;9.83;;;6.30;;
16075;SDS011;8142;48.242;11.644;2023-07-08T09:34:52;9.53;;;6.30;;
16075;SDS011;8142;48.242;11.644;2023-07-08T09:37:29;11.73;;;6.93;;
16075;SDS011;8142;48.242;11.644;2023-07-08T09:39:57;8.27;;;6.10;;
16075;SDS011;8142;48.242;11.644;2023-07-08T09:42:29;9.90;;;6.40;;
16075;SDS011;8142;48.242;11.644;2023-07-08T09:44:58;10.33;;;6.10;;
16075;SDS011;8142;48.242;11.644;2023-07-08T09:47:37;10.00;;;6.03;;
16075;SDS011;8142;48.242;11.644;2023-07-08T09:50:19;9.70;;;6.03;;
16075;SDS011;8142;48.242;11.644;2023-07-08T09:52:57;9.80;;;6.23;;
16075;SDS011;8142;48.242;11.644;2023-07-08T09:55:26;10.87;;;6.90;;
16075;SDS011;8142;48.242;11.644;2023-07-08T09:57:54;10.23;;;6.43;;
16075;SDS011;8142;48.242;11.644;2023-07-08T10:00:27;9.53;;;6.33;;
16075;SDS011;8142;48.242;11.644;2023-07-08T10:03:00;9.07;;;6.27;;
16075;SDS011;8142;48.242;11.644;2023-07-08T10:05:41;8.80;;;6.00;;
16075;SDS011;8142;48.242;11.644;2023-07-08T10:08:16;8.93;;;6.20;;
16075;SDS011;8142;48.242;11.644;2023-07-08T10:10:43;8.40;;;6.10;;
16075;SDS011;8142;48.242;11.644;2023-07-08T10:13:34;11.77;;;6.40;;
16075;SDS011;8142;48.242;11.644;2023-07-08T10:16:15;9.00;;;6.80;;
16075;SDS011;8142;48.242;11.644;2023-07-08T10:18:56;9.27;;;6.50;;
16075;SDS011;8142;48.242;11.644;2023-07-08T10:24:03;11.00;;;6.30;;
16075;SDS011;8142;48.242;11.644;2023-07-08T10:26:43;8.03;;;6.07;;
16075;SDS011;8142;48.242;11.644;2023-07-08T10:29:18;9.50;;;6.43;;
16075;SDS011;8142;48.242;11.644;2023-07-08T10:51:16;8.00;;;5.83;;
16075;SDS011;8142;48.242;11.644;2023-07-08T10:56:49;9.90;;;6.43;;
16075;SDS011;8142;48.242;11.644;2023-07-08T11:07:40;9.13;;;6.00;;
16075;SDS011;8142;48.242;11.644;2023-07-08T11:10:16;8.03;;;6.23;;
16075;SDS011;8142;48.242;11.644;2023-07-08T11:12:59;8.33;;;5.90;;
16075;SDS011;8142;48.242;11.644;2023-07-08T11:15:57;7.93;;;5.83;;
16075;SDS011;8142;48.242;11.644;2023-07-08T11:18:58;10.23;;;6.50;;
16075;SDS011;8142;48.242;11.644;2023-07-08T11:21:39;10.17;;;6.00;;
16075;SDS011;8142;48.242;11.644;2023-07-08T11:27:05;9.80;;;5.90;;
16075;SDS011;8142;48.242;11.644;2023-07-08T11:29:51;9.47;;;6.03;;
16075;SDS011;8142;48.242;11.644;2023-07-08T11:32:19;9.17;;;6.40;;
16075;SDS011;8142;48.242;11.644;2023-07-08T11:34:47;8.00;;;5.83;;
16075;SDS011;8142;48.242;11.644;2023-07-08T11:37:16;11.50;;;6.37;;
16075;SDS011;8142;48.242;11.644;2023-07-08T11:39:46;7.77;;;5.80;;
16075;SDS011;8142;48.242;11.644;2023-07-08T11:42:19;10.13;;;6.40;;
16075;SDS011;8142;48.242;11.644;2023-07-08T11:44:56;8.63;;;5.97;;
16075;SDS011;8142;48.242;11.644;2023-07-08T11:47:26;9.37;;;6.07;;
16075;SDS011;8142;48.242;11.644;2023-07-08T11:49:52;8.67;;;6.50;;
16075;SDS011;8142;48.242;11.644;2023-07-08T11:52:20;9.67;;;6.37;;
16075;SDS011;8142;48.242;11.644;2023-07-08T11:54:48;9.73;;;6.27;;
16075;SDS011;8142;48.242;11.644;2023-07-08T11:57:29;9.73;;;5.90;;
16075;SDS011;8142;48.242;11.644;2023-07-08T12:02:50;7.40;;;5.80;;
16075;SDS011;8142;48.242;11.644;2023-07-08T12:05:28;7.73;;;5.47;;
16075;SDS011;8142;48.242;11.644;2023-07-08T12:08:01;8.77;;;5.93;;
16075;SDS011;8142;48.242;11.644;2023-07-08T12:10:40;8.43;;;5.50;;
16075;SDS011;8142;48.242;11.644;2023-07-08T12:13:13;8.63;;;6.40;;
16075;SDS011;8142;48.242;11.644;2023-07-08T12:15:40;7.43;;;6.00;;
16075;SDS011;8142;48.242;11.644;2023-07-08T12:20:36;9.23;;;6.27;;
16075;SDS011;8142;48.242;11.644;2023-07-08T12:23:09;9.80;;;6.10;;
16075;SDS011;8142;48.242;11.644;2023-07-08T12:25:46;8.77;;;6.27;;
16075;SDS011;8142;48.242;11.644;2023-07-08T12:28:13;8.03;;;5.63;;
16075;SDS011;8142;48.242;11.644;2023-07-08T12:30:41;7.53;;;5.80;;
16075;SDS011;8142;48.242;11.644;2023-07-08T12:33:41;9.00;;;5.83;;
16075;SDS011;8142;48.242;11.644;2023-07-08T12:36:00;8.03;;;5.53;;
16075;SDS011;8142;48.242;11.644;2023-07-08T12:38:28;8.20;;;5.33;;
16075;SDS011;8142;48.242;11.644;2023-07-08T12:41:17;9.90;;;5.60;;
16075;SDS011;8142;48.242;11.644;2023-07-08T12:43:44;8.30;;;5.70;;
16075;SDS011;8142;48.242;11.644;2023-07-08T12:46:11;10.27;;;5.17;;
16075;SDS011;8142;48.242;11.644;2023-07-08T12:48:39;6.67;;;5.10;;
16075;SDS011;8142;48.242;11.644;2023-07-08T12:51:10;6.73;;;5.10;;
16075;SDS011;8142;48.242;11.644;2023-07-08T12:53:38;8.23;;;5.37;;
16075;SDS011;8142;48.242;11.644;2023-07-08T12:56:05;9.10;;;5.27;;
16075;SDS011;8142;48.242;11.644;2023-07-08T12:58:33;9.03;;;5.80;;
16075;SDS011;8142;48.242;11.644;2023-07-08T13:01:02;7.80;;;5.63;;
16075;SDS011;8142;48.242;11.644;2023-07-08T13:03:35;7.03;;;5.27;;
16075;SDS011;8142;48.242;11.644;2023-07-08T13:06:07;8.87;;;5.40;;
16075;SDS011;8142;48.242;11.644;2023-07-08T13:08:40;8.30;;;5.60;;
16075;SDS011;8142;48.242;11.644;2023-07-08T13:11:06;11.23;;;5.67;;
16075;SDS011;8142;48.242;11.644;2023-07-08T13:13:34;9.00;;;5.77;;
16075;SDS011;8142;48.242;11.644;2023-07-08T13:16:13;6.97;;;5.20;;
16075;SDS011;8142;48.242;11.644;2023-07-08T13:18:40;8.43;;;6.27;;
16075;SDS011;8142;48.242;11.644;2023-07-08T13:21:09;7.33;;;5.47;;
16075;SDS011;8142;48.242;11.644;2023-07-08T13:23:37;7.00;;;5.40;;
16075;SDS011;8142;48.242;11.644;2023-07-08T13:26:17;8.53;;;5.90;;
16075;SDS011;8142;48.242;11.644;2023-07-08T13:28:45;8.17;;;5.40;;
16075;SDS011;8142;48.242;11.644;2023-07-08T13:31:22;6.47;;;5.30;;
16075;SDS011;8142;48.242;11.644;2023-07-08T13:33:52;7.73;;;5.60;;
16075;SDS011;8142;48.242;11.644;2023-07-08T13:36:21;6.73;;;5.00;;
16075;SDS011;8142;48.242;11.644;2023-07-08T13:38:49;7.17;;;4.77;;
16075;SDS011;8142;48.242;11.644;2023-07-08T13:41:18;7.40;;;4.77;;
16075;SDS011;8142;48.242;11.644;2023-07-08T13:43:46;7.87;;;5.40;;
16075;SDS011;8142;48.242;11.644;2023-07-08T13:51:44;10.17;;;5.10;;
16075;SDS011;8142;48.242;11.644;2023-07-08T13:54:32;7.37;;;4.90;;
16075;SDS011;8142;48.242;11.644;2023-07-08T13:57:03;9.80;;;5.07;;
16075;SDS011;8142;48.242;11.644;2023-07-08T13:59:35;7.83;;;5.50;;
16075;SDS011;8142;48.242;11.644;2023-07-08T14:02:01;7.50;;;5.13;;
16075;SDS011;8142;48.242;11.644;2023-07-08T14:04:34;9.57;;;5.40;;
16075;SDS011;8142;48.242;11.644;2023-07-08T14:07:01;7.40;;;5.30;;
16075;SDS011;8142;48.242;11.644;2023-07-08T14:09:27;6.53;;;4.70;;
16075;SDS011;8142;48.242;11.644;2023-07-08T14:11:52;7.80;;;4.97;;
16075;SDS011;8142;48.242;11.644;2023-07-08T14:14:19;7.27;;;4.90;;
16075;SDS011;8142;48.242;11.644;2023-07-08T14:16:48;7.67;;;5.17;;
16075;SDS011;8142;48.242;11.644;2023-07-08T14:19:17;10.93;;;5.13;;
16075;SDS011;8142;48.242;11.644;2023-07-08T14:21:54;7.37;;;5.00;;
16075;SDS011;8142;48.242;11.644;2023-07-08T14:24:22;8.30;;;5.07;;
16075;SDS011;8142;48.242;11.644;2023-07-08T14:26:48;7.03;;;5.47;;
16075;SDS011;8142;48.242;11.644;2023-07-08T14:29:14;9.40;;;4.87;;
16075;SDS011;8142;48.242;11.644;2023-07-08T14:31:40;10.40;;;5.17;;
16075;SDS011;8142;48.242;11.644;2023-07-08T14:34:27;8.20;;;5.00;;
16075;SDS011;8142;48.242;11.644;2023-07-08T14:36:53;9.53;;;5.30;;
16075;SDS011;8142;48.242;11.644;2023-07-08T14:39:19;10.07;;;5.27;;
16075;SDS011;8142;48.242;11.644;2023-07-08T14:41:47;13.47;;;5.27;;
16075;SDS011;8142;48.242;11.644;2023-07-08T14:46:50;11.33;;;5.20;;
16075;SDS011;8142;48.242;11.644;2023-07-08T14:49:17;9.83;;;5.17;;
16075;SDS011;8142;48.242;11.644;2023-07-08T14:51:45;10.00;;;5.20;;
16075;SDS011;8142;48.242;11.644;2023-07-08T14:54:11;10.53;;;5.40;;
16075;SDS011;8142;48.242;11.644;2023-07-08T14:56:38;7.00;;;4.90;;
16075;SDS011;8142;48.242;11.644;2023-07-08T14:59:04;9.00;;;5.30;;
16075;SDS011;8142;48.242;11.644;2023-07-08T15:01:31;8.27;;;5.07;;
16075;SDS011;8142;48.242;11.644;2023-07-08T15:03:57;7.33;;;5.27;;
16075;SDS011;8142;48.242;11.644;2023-07-08T15:06:23;8.33;;;5.30;;
16075;SDS011;8142;48.242;11.644;2023-07-08T15:08:50;8.00;;;5.37;;
16075;SDS011;8142;48.242;11.644;2023-07-08T15:11:16;7.00;;;5.43;;
16075;SDS011;8142;48.242;11.644;2023-07-08T15:13:43;8.97;;;5.00;;
16075;SDS011;8142;48.242;11.644;2023-07-08T15:16:11;6.77;;;5.13;;
16075;SDS011;8142;48.242;11.644;2023-07-08T15:18:39;8.43;;;5.07;;
16075;SDS011;8142;48.242;11.644;2023-07-08T15:21:07;7.47;;;4.97;;
16075;SDS011;8142;48.242;11.644;2023-07-08T15:23:36;6.50;;;4.90;;
16075;SDS011;8142;48.242;11.644;2023-07-08T15:26:03;9.63;;;5.77;;
16075;SDS011;8142;48.242;11.644;2023-07-08T15:31:23;8.50;;;4.83;;
16075;SDS011;8142;48.242;11.644;2023-07-08T15:33:51;8.13;;;5.30;;
16075;SDS011;8142;48.242;11.644;2023-07-08T15:36:18;7.43;;;4.70;;
16075;SDS011;8142;48.242;11.644;2023-07-08T15:38:44;7.03;;;4.90;;
16075;SDS011;8142;48.242;11.644;2023-07-08T15:41:19;7.03;;;4.93;;
16075;SDS011;8142;48.242;11.644;2023-07-08T15:43:52;7.53;;;5.07;;
16075;SDS011;8142;48.242;11.644;2023-07-08T15:46:19;9.00;;;5.07;;
16075;SDS011;8142;48.242;11.644;2023-07-08T15:48:45;7.30;;;5.10;;
16075;SDS011;8142;48.242;11.644;2023-07-08T15:51:12;6.27;;;4.93;;
16075;SDS011;8142;48.242;11.644;2023-07-08T15:53:39;7.10;;;5.13;;
16075;SDS011;8142;48.242;11.644;2023-07-08T15:56:07;7.60;;;4.80;;
16075;SDS011;8142;48.242;11.644;2023-07-08T15:58:37;10.83;;;4.77;;
16075;SDS011;8142;48.242;11.644;2023-07-08T16:01:04;6.80;;;5.03;;
16075;SDS011;8142;48.242;11.644;2023-07-08T16:03:32;7.53;;;5.57;;
16075;SDS011;8142;48.242;11.644;2023-07-08T16:06:00;9.33;;;5.03;;